createdAt,value
2019-05-10T00:00:40.612Z,9.25
2019-05-10T00:03:28.038Z,5.20
2019-05-10T00:06:15.100Z,2.45
2019-05-10T00:08:46.337Z,3.15
2019-05-10T00:11:41.493Z,5.35
2019-05-10T00:14:25.530Z,4.72
2019-05-10T00:16:58.233Z,4.25
2019-05-10T00:19:27.787Z,4.53
2019-05-10T00:21:57.323Z,3.65
2019-05-10T00:24:26.768Z,3.40
2019-05-10T00:26:57.540Z,3.37
2019-05-10T00:29:27.111Z,3.87
2019-05-10T00:31:56.610Z,2.75
2019-05-10T00:34:26.139Z,5.22
2019-05-10T00:36:55.719Z,5.37
2019-05-10T00:39:25.229Z,3.40
2019-05-10T00:41:54.664Z,3.22
2019-05-10T00:44:24.193Z,3.37
2019-05-10T00:46:53.667Z,2.55
2019-05-10T00:49:23.160Z,2.83
2019-05-10T00:51:55.748Z,2.83
2019-05-10T00:54:27.117Z,4.33
2019-05-10T00:56:56.593Z,2.95
2019-05-10T00:59:26.078Z,2.98
2019-05-10T01:01:55.545Z,3.20
2019-05-10T01:04:25.070Z,3.75
2019-05-10T01:06:56.561Z,3.35
2019-05-10T01:09:25.752Z,4.37
2019-05-10T01:11:55.242Z,4.55
2019-05-10T01:14:26.476Z,2.52
2019-05-10T01:16:56.009Z,3.05
2019-05-10T01:19:25.488Z,3.60
2019-05-10T01:21:55.039Z,3.45
2019-05-10T01:24:24.604Z,3.45
2019-05-10T01:26:55.432Z,6.35
2019-05-10T01:29:24.992Z,3.25
2019-05-10T01:31:54.467Z,3.20
2019-05-10T01:34:23.986Z,3.85
2019-05-10T01:36:53.468Z,3.58
2019-05-10T01:39:25.533Z,4.65
2019-05-10T01:41:55.014Z,4.87
2019-05-10T01:44:25.762Z,3.50
2019-05-10T01:46:55.323Z,4.47
2019-05-10T01:49:24.786Z,2.58
2019-05-10T01:51:55.611Z,2.52
2019-05-10T01:54:25.218Z,2.85
2019-05-10T01:56:54.712Z,3.90
2019-05-10T01:59:24.206Z,2.98
2019-05-10T02:01:53.716Z,2.15
2019-05-10T02:04:23.235Z,2.90
2019-05-10T02:06:54.151Z,5.65
2019-05-10T02:09:23.706Z,2.62
2019-05-10T02:11:53.215Z,4.00
2019-05-10T02:14:23.982Z,2.72
2019-05-10T02:16:53.567Z,2.75
2019-05-10T02:19:23.036Z,3.12
2019-05-10T02:21:53.693Z,3.02
2019-05-10T02:24:23.277Z,3.30
2019-05-10T02:26:52.739Z,2.87
2019-05-10T02:29:22.280Z,3.58
2019-05-10T02:31:51.796Z,3.27
2019-05-10T02:34:23.592Z,3.62
2019-05-10T02:36:53.099Z,4.62
2019-05-10T02:39:22.582Z,2.22
2019-05-10T02:41:54.391Z,4.92
2019-05-10T02:44:23.961Z,4.80
2019-05-10T02:46:53.664Z,3.60
2019-05-10T02:49:23.190Z,3.52
2019-05-10T02:51:52.745Z,3.30
2019-05-10T02:54:22.466Z,3.02
2019-05-10T02:56:55.942Z,2.80
2019-05-10T02:59:26.006Z,3.58
2019-05-10T03:01:57.642Z,3.30
2019-05-10T03:04:30.121Z,4.17
2019-05-10T03:07:06.864Z,3.80
2019-05-10T03:09:36.428Z,2.47
2019-05-10T03:12:25.322Z,9.70
2019-05-10T03:14:56.978Z,2.85
2019-05-10T03:17:27.465Z,2.50
2019-05-10T03:19:57.330Z,5.08
2019-05-10T03:22:27.176Z,3.22
2019-05-10T03:24:56.718Z,2.55
2019-05-10T03:27:26.234Z,5.97
2019-05-10T03:29:55.790Z,3.40
2019-05-10T03:32:25.253Z,3.12
2019-05-10T03:34:54.953Z,3.70
2019-05-10T03:37:24.585Z,3.92
2019-05-10T03:39:56.511Z,3.25
2019-05-10T03:42:26.298Z,2.40
2019-05-10T03:44:55.783Z,4.05
2019-05-10T03:47:25.379Z,4.33
2019-05-10T03:49:54.921Z,3.05
2019-05-10T03:52:24.427Z,2.87
2019-05-10T03:54:53.958Z,4.08
2019-05-10T03:57:23.535Z,3.90
2019-05-10T03:59:53.150Z,2.72
2019-05-10T04:02:22.855Z,2.58
2019-05-10T04:04:52.485Z,2.58
2019-05-10T04:07:21.924Z,3.85
2019-05-10T04:09:51.523Z,3.95
2019-05-10T04:12:21.019Z,3.12
2019-05-10T04:14:50.530Z,4.28
2019-05-10T04:17:20.023Z,5.15
2019-05-10T04:19:49.520Z,4.78
2019-05-10T04:22:19.002Z,3.65
2019-05-10T04:24:48.528Z,2.35
2019-05-10T04:27:31.581Z,2.58
2019-05-10T04:29:50.085Z,2.90
2019-05-10T04:32:19.601Z,2.67
2019-05-10T04:34:49.040Z,2.62
2019-05-10T04:37:18.586Z,2.27
2019-05-10T04:39:48.087Z,3.15
2019-05-10T04:42:17.798Z,3.33
2019-05-10T04:44:47.363Z,2.58
2019-05-10T04:47:16.817Z,3.60
2019-05-10T04:49:46.272Z,1.40
2019-05-10T04:52:15.768Z,3.08
2019-05-10T04:54:46.532Z,2.50
2019-05-10T04:57:16.004Z,3.77
2019-05-10T04:59:45.593Z,3.75
2019-05-10T05:02:15.116Z,4.25
2019-05-10T05:04:44.719Z,3.05
2019-05-10T05:07:14.188Z,2.33
2019-05-10T05:09:43.694Z,2.60
2019-05-10T05:12:13.151Z,2.87
2019-05-10T05:14:42.921Z,3.10
2019-05-10T05:17:14.624Z,2.62
2019-05-10T05:19:44.108Z,4.17
2019-05-10T05:22:13.690Z,4.37
2019-05-10T05:24:44.049Z,2.40
2019-05-10T05:27:13.662Z,4.20
2019-05-10T05:29:43.123Z,3.25
2019-05-10T05:32:13.471Z,2.85
2019-05-10T05:34:43.089Z,5.62
2019-05-10T05:37:12.713Z,5.33
2019-05-10T05:39:42.163Z,3.00
2019-05-10T05:42:11.809Z,2.90
2019-05-10T05:44:41.243Z,3.42
2019-05-10T05:47:10.824Z,2.67
2019-05-10T05:49:40.343Z,3.25
2019-05-10T05:52:09.797Z,4.00
2019-05-10T05:54:39.240Z,2.08
2019-05-10T05:57:08.772Z,7.92
2019-05-10T05:59:38.443Z,4.85
2019-05-10T06:02:09.526Z,3.25
2019-05-10T06:04:40.816Z,2.27
2019-05-10T06:07:10.393Z,2.47
2019-05-10T06:09:39.890Z,7.45
2019-05-10T06:12:12.743Z,4.30
2019-05-10T06:14:43.367Z,2.60
2019-05-10T06:17:11.818Z,4.80
2019-05-10T06:19:41.294Z,4.00
2019-05-10T06:22:10.796Z,4.72
2019-05-10T06:24:40.292Z,3.58
2019-05-10T06:27:09.834Z,2.45
2019-05-10T06:29:42.943Z,3.00
2019-05-10T06:32:10.570Z,2.95
2019-05-10T06:34:40.336Z,4.55
2019-05-10T06:37:10.022Z,4.55
2019-05-10T06:39:39.553Z,6.03
2019-05-10T06:42:09.061Z,7.37
2019-05-10T06:44:38.639Z,11.05
2019-05-10T06:47:11.225Z,8.15
2019-05-10T06:49:41.749Z,7.37
2019-05-10T06:52:10.623Z,13.88
2019-05-10T06:54:40.167Z,6.92
2019-05-10T06:57:11.106Z,5.83
2019-05-10T06:59:40.913Z,7.70
2019-05-10T07:02:10.423Z,7.42
2019-05-10T07:04:41.051Z,6.55
2019-05-10T07:07:22.314Z,3.58
2019-05-10T07:12:15.318Z,6.65
2019-05-10T07:14:46.697Z,6.92
2019-05-10T07:17:16.351Z,9.00
2019-05-10T07:19:53.490Z,6.08
2019-05-10T07:22:21.645Z,3.50
2019-05-10T07:24:48.259Z,9.95
2019-05-10T07:27:17.774Z,6.72
2019-05-10T07:29:47.215Z,4.45
2019-05-10T07:32:22.127Z,6.72
2019-05-10T07:34:54.742Z,5.35
2019-05-10T07:37:19.206Z,4.92
2019-05-10T07:39:48.721Z,4.62
2019-05-10T07:42:18.151Z,3.08
2019-05-10T07:44:48.847Z,3.15
2019-05-10T07:47:18.355Z,4.12
2019-05-10T07:49:47.909Z,5.22
2019-05-10T07:52:17.372Z,5.60
2019-05-10T07:54:47.846Z,2.67
2019-05-10T07:57:18.770Z,3.83
2019-05-10T07:59:50.989Z,5.30
2019-05-10T08:02:20.029Z,3.90
2019-05-10T08:04:53.295Z,4.28
2019-05-10T08:07:20.895Z,4.22
2019-05-10T08:09:50.343Z,3.90
2019-05-10T08:12:19.810Z,4.05
2019-05-10T08:14:53.355Z,3.87
2019-05-10T08:17:20.785Z,2.95
2019-05-10T08:19:50.244Z,3.12
2019-05-10T08:22:19.752Z,3.50
2019-05-10T08:24:54.427Z,5.15
2019-05-10T08:27:22.876Z,2.67
2019-05-10T08:30:15.812Z,6.12
2019-05-10T08:32:25.569Z,4.20
2019-05-10T08:34:55.853Z,2.37
2019-05-10T08:37:30.884Z,2.52
2019-05-10T08:39:56.667Z,2.95
2019-05-10T08:42:43.479Z,2.45
2019-05-10T08:45:03.632Z,3.52
2019-05-10T08:47:28.617Z,2.25
2019-05-10T08:50:11.877Z,3.27
2019-05-10T08:52:31.781Z,3.35
2019-05-10T08:55:02.756Z,2.30
2019-05-10T08:57:34.765Z,2.70
2019-05-10T09:00:08.737Z,2.83
2019-05-10T09:02:34.607Z,2.20
2019-05-10T09:05:04.401Z,2.52
2019-05-10T09:07:38.710Z,3.25
2019-05-10T09:10:05.661Z,2.90
2019-05-10T09:12:35.110Z,1.70
2019-05-10T09:15:09.913Z,2.05
2019-05-10T09:17:36.470Z,2.12
2019-05-10T09:20:06.715Z,2.33
2019-05-10T09:22:38.606Z,1.98
2019-05-10T09:25:07.814Z,2.83
2019-05-10T09:27:37.376Z,3.05
2019-05-10T09:30:08.070Z,2.12
2019-05-10T09:32:39.954Z,3.85
2019-05-10T09:35:09.726Z,2.25
2019-05-10T09:37:41.850Z,1.72
2019-05-10T09:40:13.049Z,5.35
2019-05-10T09:42:43.708Z,2.27
2019-05-10T09:45:13.350Z,4.20
2019-05-10T09:47:43.617Z,2.05
2019-05-10T09:50:14.177Z,2.58
2019-05-10T09:52:43.682Z,5.55
2019-05-10T09:55:15.014Z,1.60
2019-05-10T09:57:44.587Z,2.37
2019-05-10T10:00:17.506Z,2.00
2019-05-10T10:02:56.468Z,2.50
2019-05-10T10:05:19.293Z,3.20
2019-05-10T10:07:48.832Z,1.52
2019-05-10T10:10:28.504Z,2.08
2019-05-10T10:12:49.868Z,2.17
2019-05-10T10:15:32.172Z,2.85
2019-05-10T10:17:50.627Z,2.72
2019-05-10T10:20:20.268Z,1.67
2019-05-10T10:22:54.541Z,3.08
2019-05-10T10:25:20.978Z,1.72
2019-05-10T10:27:50.509Z,1.67
2019-05-10T10:30:21.517Z,2.62
2019-05-10T10:32:51.169Z,3.35
2019-05-10T10:35:26.558Z,1.98
2019-05-10T10:37:51.996Z,3.05
2019-05-10T10:40:21.761Z,2.50
2019-05-10T10:42:51.309Z,3.22
2019-05-10T10:45:20.980Z,1.67
2019-05-10T10:47:50.445Z,2.92
2019-05-10T10:50:19.955Z,2.22
2019-05-10T10:52:49.477Z,3.35
2019-05-10T10:55:18.966Z,2.90
2019-05-10T10:57:48.449Z,1.65
2019-05-10T11:00:23.671Z,2.47
2019-05-10T11:02:53.757Z,1.65
2019-05-10T11:05:24.375Z,2.58
2019-05-10T11:07:53.983Z,2.47
2019-05-10T11:10:31.251Z,2.15
2019-05-10T11:13:04.623Z,3.50
2019-05-10T11:15:35.778Z,2.20
2019-05-10T11:18:03.699Z,2.67
2019-05-10T11:20:33.584Z,1.55
2019-05-10T11:23:03.049Z,2.02
2019-05-10T11:25:32.491Z,3.05
2019-05-10T11:28:02.087Z,2.22
2019-05-10T11:30:32.458Z,2.08
2019-05-10T11:33:02.245Z,2.27
2019-05-10T11:35:34.494Z,2.83
2019-05-10T11:38:06.554Z,2.15
2019-05-10T11:40:35.182Z,2.17
2019-05-10T11:43:04.941Z,2.40
2019-05-10T11:45:35.191Z,2.55
2019-05-10T11:48:05.817Z,2.85
2019-05-10T11:50:35.768Z,2.58
2019-05-10T11:53:07.025Z,1.67
2019-05-10T11:55:40.032Z,3.35
2019-05-10T11:58:10.074Z,2.92
2019-05-10T12:00:41.197Z,2.00
2019-05-10T12:03:14.996Z,1.98
2019-05-10T12:05:42.600Z,2.00
2019-05-10T12:08:13.122Z,2.80
2019-05-10T12:13:19.300Z,3.98
2019-05-10T12:15:45.986Z,3.55
2019-05-10T12:18:15.424Z,4.17
2019-05-10T12:20:54.780Z,2.17
2019-05-10T12:23:22.597Z,1.40
2019-05-10T12:26:05.228Z,4.15
2019-05-10T12:26:24.686Z,3.10
2019-05-10T12:28:23.985Z,1.40
2019-05-10T12:30:51.117Z,2.10
2019-05-10T12:33:24.970Z,2.33
2019-05-10T12:35:52.865Z,2.05
2019-05-10T12:38:23.571Z,3.30
2019-05-10T12:40:53.589Z,1.87
2019-05-10T12:43:23.138Z,2.65
2019-05-10T12:45:52.594Z,1.72
2019-05-10T12:48:23.574Z,4.05
2019-05-10T12:50:57.946Z,4.00
2019-05-10T12:53:24.570Z,2.27
2019-05-10T12:55:54.052Z,2.60
2019-05-10T12:58:23.540Z,1.42
2019-05-10T13:00:54.550Z,2.58
2019-05-10T13:03:31.521Z,1.82
2019-05-10T13:05:55.701Z,1.92
2019-05-10T13:08:25.183Z,3.08
2019-05-10T13:10:54.748Z,1.98
2019-05-10T13:13:29.485Z,2.50
2019-05-10T13:15:55.507Z,2.67
2019-05-10T13:18:48.113Z,3.83
2019-05-10T13:20:56.281Z,1.57
2019-05-10T13:23:26.237Z,1.98
2019-05-10T13:25:55.810Z,3.33
2019-05-10T13:28:25.335Z,4.37
2019-05-10T13:30:59.709Z,2.10
2019-05-10T13:33:29.359Z,1.82
2019-05-10T13:35:58.545Z,1.92
2019-05-10T13:38:28.693Z,3.02
2019-05-10T13:40:58.178Z,1.32
2019-05-10T13:43:28.385Z,2.33
2019-05-10T13:45:58.096Z,4.15
2019-05-10T13:48:27.649Z,1.47
2019-05-10T13:50:57.107Z,2.12
2019-05-10T13:53:26.614Z,2.12
2019-05-10T13:55:56.089Z,1.85
2019-05-10T13:58:25.672Z,3.12
2019-05-10T14:00:55.207Z,3.42
2019-05-10T14:03:24.778Z,4.67
2019-05-10T14:05:54.351Z,2.85
2019-05-10T14:08:23.849Z,3.77
2019-05-10T14:10:56.035Z,2.85
2019-05-10T14:13:24.626Z,2.10
2019-05-10T14:15:54.301Z,2.20
2019-05-10T14:18:23.797Z,2.60
2019-05-10T14:20:53.259Z,3.30
2019-05-10T14:23:22.762Z,3.37
2019-05-10T14:25:52.248Z,2.83
2019-05-10T14:28:21.699Z,1.47
2019-05-10T14:30:57.106Z,2.90
2019-05-10T14:33:22.449Z,2.00
2019-05-10T14:35:55.315Z,1.87
2019-05-10T14:38:23.257Z,1.87
2019-05-10T14:40:52.796Z,4.20
2019-05-10T14:43:22.325Z,2.70
2019-05-10T14:45:51.818Z,3.85
2019-05-10T14:48:27.753Z,2.92
2019-05-10T14:50:52.610Z,3.27
2019-05-10T14:53:25.669Z,1.77
2019-05-10T14:55:53.292Z,2.17
2019-05-10T14:58:22.764Z,1.62
2019-05-10T15:00:52.240Z,3.12
2019-05-10T15:03:21.728Z,2.60
2019-05-10T15:05:55.655Z,2.40
2019-05-10T15:08:22.507Z,2.83
2019-05-10T15:10:51.971Z,3.10
2019-05-10T15:13:25.500Z,3.92
2019-05-10T15:15:52.722Z,3.90
2019-05-10T15:18:22.413Z,3.40
2019-05-10T15:20:52.373Z,2.10
2019-05-10T15:23:21.863Z,3.10
2019-05-10T15:25:57.196Z,2.08
2019-05-10T15:28:22.663Z,1.98
2019-05-10T15:30:52.881Z,1.95
2019-05-10T15:33:22.428Z,4.05
2019-05-10T15:35:53.882Z,1.90
2019-05-10T15:38:23.202Z,2.02
2019-05-10T15:40:52.738Z,1.90
2019-05-10T15:43:22.390Z,2.20
2019-05-10T15:45:53.157Z,3.00
2019-05-10T15:48:23.220Z,2.47
2019-05-10T15:50:52.853Z,3.20
2019-05-10T15:53:25.465Z,7.17
2019-05-10T15:55:59.004Z,3.10
2019-05-10T15:58:24.932Z,3.50
2019-05-10T16:00:54.500Z,2.52
2019-05-10T16:03:24.107Z,5.17
2019-05-10T16:06:00.628Z,5.22
2019-05-10T16:08:30.441Z,10.70
2019-05-10T16:10:56.179Z,10.05
2019-05-10T16:13:25.835Z,6.40
2019-05-10T16:15:57.526Z,17.10
2019-05-10T16:18:27.154Z,8.80
2019-05-10T16:20:56.746Z,7.30
2019-05-10T16:23:26.310Z,5.17
2019-05-10T16:25:55.827Z,4.03
2019-05-10T16:28:25.560Z,7.25
2019-05-10T16:30:55.226Z,6.20
2019-05-10T16:33:24.901Z,6.10
2019-05-10T16:35:54.542Z,4.83
2019-05-10T16:38:24.178Z,6.40
2019-05-10T16:40:58.195Z,8.00
2019-05-10T16:43:31.577Z,6.60
2019-05-10T16:46:01.172Z,7.50
2019-05-10T16:48:30.679Z,8.75
2019-05-10T16:51:03.741Z,9.05
2019-05-10T16:53:31.647Z,8.53
2019-05-10T16:56:01.181Z,6.00
2019-05-10T16:58:31.014Z,6.92
2019-05-10T17:01:00.503Z,6.35
2019-05-10T17:03:30.386Z,6.87
2019-05-10T17:06:04.194Z,8.38
2019-05-10T17:08:36.897Z,6.08
2019-05-10T17:11:09.449Z,8.45
2019-05-10T17:13:36.444Z,8.35
2019-05-10T17:16:06.610Z,8.35
2019-05-10T17:18:36.128Z,10.32
2019-05-10T17:21:05.755Z,6.05
2019-05-10T17:23:36.437Z,7.58
2019-05-10T17:26:06.335Z,8.13
2019-05-10T17:28:37.434Z,6.08
2019-05-10T17:31:08.383Z,12.23
2019-05-10T17:33:42.892Z,10.08
2019-05-10T17:36:14.334Z,8.05
2019-05-10T17:38:41.138Z,6.65
2019-05-10T17:41:10.718Z,6.90
2019-05-10T17:43:40.897Z,6.75
2019-05-10T17:46:12.614Z,7.05
2019-05-10T17:48:47.530Z,8.63
2019-05-10T17:51:13.137Z,7.62
2019-05-10T17:53:43.027Z,9.10
2019-05-10T17:56:12.610Z,6.37
2019-05-10T17:58:42.249Z,7.95
2019-05-10T18:01:11.781Z,7.53
2019-05-10T18:03:41.324Z,8.75
2019-05-10T18:06:23.025Z,11.12
2019-05-10T18:08:42.084Z,7.85
2019-05-10T18:11:11.918Z,9.35
2019-05-10T18:13:42.578Z,6.05
2019-05-10T18:16:12.297Z,7.37
2019-05-10T18:18:46.746Z,6.90
2019-05-10T18:21:15.871Z,6.53
2019-05-10T18:23:44.325Z,9.40
2019-05-10T18:26:13.829Z,6.80
2019-05-10T18:28:43.767Z,8.88
2019-05-10T18:31:13.489Z,7.03
2019-05-10T18:33:44.752Z,8.40
2019-05-10T18:36:14.488Z,6.15
2019-05-10T18:38:44.098Z,6.70
2019-05-10T18:41:13.956Z,6.87
2019-05-10T18:43:43.584Z,6.15
2019-05-10T18:46:13.152Z,5.45
2019-05-10T18:48:42.719Z,6.37
2019-05-10T18:51:12.334Z,6.10
2019-05-10T18:53:41.877Z,6.25
2019-05-10T18:56:11.370Z,6.55
2019-05-10T18:58:40.998Z,8.03
2019-05-10T19:01:10.580Z,7.00
2019-05-10T19:03:40.111Z,6.67
2019-05-10T19:06:11.505Z,5.97
2019-05-10T19:08:43.878Z,7.83
2019-05-10T19:11:12.258Z,8.13
2019-05-10T19:13:47.954Z,5.45
2019-05-10T19:16:13.038Z,7.03
2019-05-10T19:18:42.553Z,6.30
2019-05-10T19:21:12.178Z,5.15
2019-05-10T19:23:41.726Z,6.47
2019-05-10T19:26:11.278Z,6.65
2019-05-10T19:28:40.752Z,4.87
2019-05-10T19:31:10.502Z,6.20
2019-05-10T19:33:40.093Z,5.92
2019-05-10T19:36:13.340Z,6.92
2019-05-10T19:38:41.112Z,6.00
2019-05-10T19:41:10.794Z,5.47
2019-05-10T19:43:40.432Z,7.60
2019-05-10T19:46:10.046Z,7.30
2019-05-10T19:48:39.714Z,5.83
2019-05-10T19:51:10.045Z,5.47
2019-05-10T19:53:42.803Z,8.35
2019-05-10T19:56:11.909Z,7.92
2019-05-10T19:58:41.381Z,9.25
2019-05-10T20:01:10.999Z,5.67
2019-05-10T20:03:40.577Z,5.20
2019-05-10T20:06:10.166Z,6.00
2019-05-10T20:08:39.641Z,4.83
2019-05-10T20:11:09.422Z,7.00
2019-05-10T20:13:38.897Z,7.00
2019-05-10T20:16:08.370Z,4.47
2019-05-10T20:18:37.955Z,5.28
2019-05-10T20:21:07.456Z,6.22
2019-05-10T20:23:37.006Z,5.42
2019-05-10T20:26:06.544Z,3.90
2019-05-10T20:28:36.163Z,5.47
2019-05-10T20:31:05.642Z,11.80
2019-05-10T20:33:35.262Z,5.55
2019-05-10T20:36:04.885Z,4.40
2019-05-10T20:38:34.464Z,3.95
2019-05-10T20:41:04.110Z,6.05
2019-05-10T20:43:33.620Z,5.00
2019-05-10T20:46:03.221Z,4.97
2019-05-10T20:48:32.701Z,5.45
2019-05-10T20:51:02.324Z,4.17
2019-05-10T20:53:31.818Z,5.35
2019-05-10T20:56:01.528Z,5.22
2019-05-10T20:58:31.069Z,7.05
2019-05-10T21:01:00.574Z,7.08
2019-05-10T21:03:30.151Z,6.28
2019-05-10T21:05:59.777Z,6.87
2019-05-10T21:08:29.761Z,4.95
2019-05-10T21:10:59.261Z,4.83
2019-05-10T21:13:28.854Z,4.90
2019-05-10T21:15:58.372Z,5.85
2019-05-10T21:18:27.984Z,6.15
2019-05-10T21:20:57.505Z,4.08
2019-05-10T21:23:26.977Z,4.05
2019-05-10T21:25:56.457Z,3.95
2019-05-10T21:28:25.970Z,7.42
2019-05-10T21:30:55.485Z,6.00
2019-05-10T21:33:24.988Z,5.17
2019-05-10T21:35:56.378Z,4.05
2019-05-10T21:38:32.960Z,5.42
2019-05-10T21:40:57.552Z,5.67
2019-05-10T21:43:27.146Z,3.50
2019-05-10T21:45:56.627Z,4.90
2019-05-10T21:48:26.146Z,5.17
2019-05-10T21:50:55.702Z,4.67
2019-05-10T21:53:25.330Z,4.42
2019-05-10T21:55:55.008Z,3.77
2019-05-10T21:58:24.550Z,4.97
2019-05-10T22:00:54.439Z,4.03
2019-05-10T22:03:24.103Z,4.03
2019-05-10T22:05:53.884Z,4.30
2019-05-10T22:08:23.373Z,6.75
2019-05-10T22:10:52.897Z,3.45
2019-05-10T22:13:22.382Z,3.52
2019-05-10T22:15:51.871Z,4.08
2019-05-10T22:18:21.345Z,4.78
2019-05-10T22:20:50.962Z,5.50
2019-05-10T22:23:20.442Z,4.37
2019-05-10T22:25:50.018Z,4.80
2019-05-10T22:28:19.698Z,5.95
2019-05-10T22:30:49.349Z,3.70
2019-05-10T22:33:18.953Z,3.95
2019-05-10T22:35:48.521Z,5.03
2019-05-10T22:38:18.209Z,4.08
2019-05-10T22:40:47.678Z,3.17
2019-05-10T22:43:17.405Z,4.37
2019-05-10T22:45:46.921Z,4.55
2019-05-10T22:48:16.517Z,3.72
2019-05-10T22:50:46.097Z,3.42
2019-05-10T22:53:16.007Z,4.62
2019-05-10T22:55:45.493Z,3.95
2019-05-10T22:58:15.099Z,4.47
2019-05-10T23:00:44.562Z,3.10
2019-05-10T23:03:14.090Z,5.05
2019-05-10T23:05:43.585Z,6.97
2019-05-10T23:08:13.135Z,4.72
2019-05-10T23:10:42.577Z,4.37
2019-05-10T23:13:12.230Z,3.95
2019-05-10T23:15:41.705Z,5.62
2019-05-10T23:18:11.176Z,4.15
2019-05-10T23:20:40.704Z,3.62
2019-05-10T23:23:10.202Z,4.50
2019-05-10T23:25:39.678Z,3.55
2019-05-10T23:28:09.245Z,4.85
2019-05-10T23:30:39.770Z,3.35
2019-05-10T23:33:12.363Z,3.37
2019-05-10T23:35:42.020Z,4.50
2019-05-10T23:38:11.585Z,3.58
2019-05-10T23:40:41.156Z,3.70
2019-05-10T23:43:10.782Z,3.50
2019-05-10T23:45:40.340Z,4.28
2019-05-10T23:48:09.790Z,3.72
2019-05-10T23:50:39.357Z,4.72
2019-05-10T23:53:08.832Z,3.25
2019-05-10T23:55:38.312Z,3.77
2019-05-10T23:58:07.905Z,4.00
